sensor_id;sensor_type;location;lat;lon;timestamp;P1;durP1;ratioP1;P2;durP2;ratioP2
15228;SDS011;7717;47.792;12.076;2023-02-18T00:00:13;3.37;;;2.27;;
15228;SDS011;7717;47.792;12.076;2023-02-18T00:02:41;2.90;;;2.47;;
15228;SDS011;7717;47.792;12.076;2023-02-18T00:05:07;3.30;;;3.00;;
15228;SDS011;7717;47.792;12.076;2023-02-18T00:07:36;3.60;;;2.60;;
15228;SDS011;7717;47.792;12.076;2023-02-18T00:10:03;4.03;;;2.50;;
15228;SDS011;7717;47.792;12.076;2023-02-18T00:12:31;2.70;;;2.27;;
15228;SDS011;7717;47.792;12.076;2023-02-18T00:14:57;2.50;;;2.30;;
15228;SDS011;7717;47.792;12.076;2023-02-18T00:17:22;2.77;;;2.00;;
15228;SDS011;7717;47.792;12.076;2023-02-18T00:19:48;1.40;;;1.30;;
15228;SDS011;7717;47.792;12.076;2023-02-18T00:22:13;1.17;;;1.00;;
15228;SDS011;7717;47.792;12.076;2023-02-18T00:24:39;1.00;;;0.90;;
15228;SDS011;7717;47.792;12.076;2023-02-18T00:27:05;1.47;;;1.10;;
15228;SDS011;7717;47.792;12.076;2023-02-18T00:29:30;1.80;;;1.03;;
15228;SDS011;7717;47.792;12.076;2023-02-18T00:31:56;1.77;;;0.73;;
15228;SDS011;7717;47.792;12.076;2023-02-18T00:34:22;2.37;;;0.77;;
15228;SDS011;7717;47.792;12.076;2023-02-18T00:36:47;1.00;;;0.90;;
15228;SDS011;7717;47.792;12.076;2023-02-18T00:39:12;1.50;;;0.70;;
15228;SDS011;7717;47.792;12.076;2023-02-18T00:41:38;1.00;;;0.70;;
15228;SDS011;7717;47.792;12.076;2023-02-18T00:44:04;1.40;;;0.70;;
15228;SDS011;7717;47.792;12.076;2023-02-18T00:46:30;0.70;;;0.70;;
15228;SDS011;7717;47.792;12.076;2023-02-18T00:48:55;0.80;;;0.70;;
15228;SDS011;7717;47.792;12.076;2023-02-18T00:51:21;1.00;;;0.80;;
15228;SDS011;7717;47.792;12.076;2023-02-18T00:53:48;1.23;;;0.90;;
15228;SDS011;7717;47.792;12.076;2023-02-18T00:56:13;0.70;;;0.70;;
15228;SDS011;7717;47.792;12.076;2023-02-18T00:58:39;1.07;;;0.80;;
15228;SDS011;7717;47.792;12.076;2023-02-18T01:01:05;2.13;;;0.80;;
15228;SDS011;7717;47.792;12.076;2023-02-18T01:03:32;1.40;;;0.77;;
15228;SDS011;7717;47.792;12.076;2023-02-18T01:05:57;0.60;;;0.60;;
15228;SDS011;7717;47.792;12.076;2023-02-18T01:08:23;0.70;;;0.70;;
15228;SDS011;7717;47.792;12.076;2023-02-18T01:10:49;0.73;;;0.70;;
15228;SDS011;7717;47.792;12.076;2023-02-18T01:13:18;1.07;;;0.83;;
15228;SDS011;7717;47.792;12.076;2023-02-18T01:15:43;0.70;;;0.70;;
15228;SDS011;7717;47.792;12.076;2023-02-18T01:18:10;0.70;;;0.70;;
15228;SDS011;7717;47.792;12.076;2023-02-18T01:20:38;0.90;;;0.80;;
15228;SDS011;7717;47.792;12.076;2023-02-18T01:23:06;0.83;;;0.80;;
15228;SDS011;7717;47.792;12.076;2023-02-18T01:25:32;0.90;;;0.77;;
15228;SDS011;7717;47.792;12.076;2023-02-18T01:27:58;0.80;;;0.73;;
15228;SDS011;7717;47.792;12.076;2023-02-18T01:30:23;0.60;;;0.60;;
15228;SDS011;7717;47.792;12.076;2023-02-18T01:32:49;0.80;;;0.80;;
15228;SDS011;7717;47.792;12.076;2023-02-18T01:35:16;0.97;;;0.87;;
15228;SDS011;7717;47.792;12.076;2023-02-18T01:37:43;2.17;;;0.80;;
15228;SDS011;7717;47.792;12.076;2023-02-18T01:40:13;2.00;;;0.80;;
15228;SDS011;7717;47.792;12.076;2023-02-18T01:42:40;1.00;;;0.90;;
15228;SDS011;7717;47.792;12.076;2023-02-18T01:47:53;1.30;;;0.90;;
15228;SDS011;7717;47.792;12.076;2023-02-18T01:50:18;0.80;;;0.80;;
15228;SDS011;7717;47.792;12.076;2023-02-18T01:52:44;2.20;;;0.90;;
15228;SDS011;7717;47.792;12.076;2023-02-18T01:55:09;1.13;;;0.87;;
15228;SDS011;7717;47.792;12.076;2023-02-18T01:57:36;2.33;;;1.00;;
15228;SDS011;7717;47.792;12.076;2023-02-18T02:00:04;3.13;;;0.83;;
15228;SDS011;7717;47.792;12.076;2023-02-18T02:02:34;0.70;;;0.70;;
15228;SDS011;7717;47.792;12.076;2023-02-18T02:05:03;1.10;;;1.00;;
15228;SDS011;7717;47.792;12.076;2023-02-18T02:07:29;0.80;;;0.80;;
15228;SDS011;7717;47.792;12.076;2023-02-18T02:09:55;1.23;;;1.10;;
15228;SDS011;7717;47.792;12.076;2023-02-18T02:12:35;1.50;;;0.73;;
15228;SDS011;7717;47.792;12.076;2023-02-18T02:18:06;1.20;;;1.10;;
15228;SDS011;7717;47.792;12.076;2023-02-18T02:23:30;2.40;;;0.87;;
15228;SDS011;7717;47.792;12.076;2023-02-18T02:26:14;0.60;;;0.60;;
15228;SDS011;7717;47.792;12.076;2023-02-18T02:38:10;0.87;;;0.80;;
15228;SDS011;7717;47.792;12.076;2023-02-18T02:40:49;0.60;;;0.60;;
15228;SDS011;7717;47.792;12.076;2023-02-18T02:49:15;2.80;;;1.00;;
15228;SDS011;7717;47.792;12.076;2023-02-18T02:56:44;2.23;;;2.03;;
15228;SDS011;7717;47.792;12.076;2023-02-18T02:59:13;1.53;;;1.43;;
15228;SDS011;7717;47.792;12.076;2023-02-18T03:07:35;1.30;;;1.20;;
15228;SDS011;7717;47.792;12.076;2023-02-18T03:20:54;1.10;;;1.00;;
15228;SDS011;7717;47.792;12.076;2023-02-18T03:23:24;1.67;;;1.27;;
15228;SDS011;7717;47.792;12.076;2023-02-18T03:25:56;3.20;;;1.10;;
15228;SDS011;7717;47.792;12.076;2023-02-18T03:28:24;1.53;;;1.17;;
15228;SDS011;7717;47.792;12.076;2023-02-18T03:30:57;1.83;;;1.10;;
15228;SDS011;7717;47.792;12.076;2023-02-18T03:33:36;2.03;;;1.10;;
15228;SDS011;7717;47.792;12.076;2023-02-18T03:36:06;0.57;;;0.57;;
15228;SDS011;7717;47.792;12.076;2023-02-18T03:38:41;1.50;;;1.20;;
15228;SDS011;7717;47.792;12.076;2023-02-18T03:41:11;1.20;;;1.10;;
15228;SDS011;7717;47.792;12.076;2023-02-18T03:43:39;1.33;;;1.23;;
15228;SDS011;7717;47.792;12.076;2023-02-18T03:46:04;2.10;;;1.83;;
15228;SDS011;7717;47.792;12.076;2023-02-18T03:48:30;1.47;;;1.37;;
15228;SDS011;7717;47.792;12.076;2023-02-18T03:50:55;1.60;;;1.20;;
15228;SDS011;7717;47.792;12.076;2023-02-18T03:53:20;1.87;;;1.50;;
15228;SDS011;7717;47.792;12.076;2023-02-18T03:55:46;2.17;;;1.30;;
15228;SDS011;7717;47.792;12.076;2023-02-18T03:58:11;1.70;;;1.40;;
15228;SDS011;7717;47.792;12.076;2023-02-18T04:00:36;1.60;;;1.40;;
15228;SDS011;7717;47.792;12.076;2023-02-18T04:03:02;1.47;;;1.30;;
15228;SDS011;7717;47.792;12.076;2023-02-18T04:05:27;1.63;;;1.40;;
15228;SDS011;7717;47.792;12.076;2023-02-18T04:07:53;3.40;;;2.07;;
15228;SDS011;7717;47.792;12.076;2023-02-18T04:10:18;5.27;;;1.73;;
15228;SDS011;7717;47.792;12.076;2023-02-18T04:12:44;1.80;;;1.67;;
15228;SDS011;7717;47.792;12.076;2023-02-18T04:15:10;1.87;;;1.40;;
15228;SDS011;7717;47.792;12.076;2023-02-18T04:17:35;1.60;;;1.50;;
15228;SDS011;7717;47.792;12.076;2023-02-18T04:20:00;1.93;;;1.57;;
15228;SDS011;7717;47.792;12.076;2023-02-18T04:22:27;2.63;;;2.43;;
15228;SDS011;7717;47.792;12.076;2023-02-18T04:24:53;2.80;;;2.43;;
15228;SDS011;7717;47.792;12.076;2023-02-18T04:27:18;2.70;;;2.50;;
15228;SDS011;7717;47.792;12.076;2023-02-18T04:29:43;3.30;;;2.80;;
15228;SDS011;7717;47.792;12.076;2023-02-18T04:32:09;4.90;;;3.00;;
15228;SDS011;7717;47.792;12.076;2023-02-18T04:34:34;3.97;;;3.00;;
15228;SDS011;7717;47.792;12.076;2023-02-18T04:36:59;4.43;;;2.90;;
15228;SDS011;7717;47.792;12.076;2023-02-18T04:39:25;5.23;;;3.20;;
15228;SDS011;7717;47.792;12.076;2023-02-18T04:41:50;4.20;;;3.07;;
15228;SDS011;7717;47.792;12.076;2023-02-18T04:44:15;3.27;;;2.97;;
15228;SDS011;7717;47.792;12.076;2023-02-18T04:46:41;4.80;;;3.10;;
15228;SDS011;7717;47.792;12.076;2023-02-18T04:49:06;4.20;;;3.07;;
15228;SDS011;7717;47.792;12.076;2023-02-18T04:51:31;6.10;;;3.80;;
15228;SDS011;7717;47.792;12.076;2023-02-18T04:53:57;4.00;;;3.43;;
15228;SDS011;7717;47.792;12.076;2023-02-18T04:56:22;4.07;;;2.90;;
15228;SDS011;7717;47.792;12.076;2023-02-18T04:58:47;4.83;;;3.10;;
15228;SDS011;7717;47.792;12.076;2023-02-18T05:01:13;4.47;;;3.33;;
15228;SDS011;7717;47.792;12.076;2023-02-18T05:03:38;3.53;;;3.17;;
15228;SDS011;7717;47.792;12.076;2023-02-18T05:06:04;3.20;;;2.90;;
15228;SDS011;7717;47.792;12.076;2023-02-18T05:08:30;3.23;;;2.90;;
15228;SDS011;7717;47.792;12.076;2023-02-18T05:10:55;3.73;;;3.00;;
15228;SDS011;7717;47.792;12.076;2023-02-18T05:13:20;5.40;;;3.27;;
15228;SDS011;7717;47.792;12.076;2023-02-18T05:15:47;4.67;;;3.40;;
15228;SDS011;7717;47.792;12.076;2023-02-18T05:18:12;4.80;;;3.27;;
15228;SDS011;7717;47.792;12.076;2023-02-18T05:20:38;4.80;;;3.63;;
15228;SDS011;7717;47.792;12.076;2023-02-18T05:23:03;4.13;;;3.10;;
15228;SDS011;7717;47.792;12.076;2023-02-18T05:25:28;3.30;;;3.00;;
15228;SDS011;7717;47.792;12.076;2023-02-18T05:27:54;4.77;;;2.73;;
15228;SDS011;7717;47.792;12.076;2023-02-18T05:30:19;4.20;;;3.40;;
15228;SDS011;7717;47.792;12.076;2023-02-18T05:32:45;4.60;;;3.60;;
15228;SDS011;7717;47.792;12.076;2023-02-18T05:35:10;4.03;;;3.30;;
15228;SDS011;7717;47.792;12.076;2023-02-18T05:37:35;4.00;;;3.30;;
15228;SDS011;7717;47.792;12.076;2023-02-18T05:40:02;6.07;;;3.40;;
15228;SDS011;7717;47.792;12.076;2023-02-18T05:42:28;3.90;;;3.20;;
15228;SDS011;7717;47.792;12.076;2023-02-18T05:44:53;3.43;;;3.10;;
15228;SDS011;7717;47.792;12.076;2023-02-18T05:47:18;3.47;;;3.17;;
15228;SDS011;7717;47.792;12.076;2023-02-18T05:49:44;3.97;;;3.67;;
15228;SDS011;7717;47.792;12.076;2023-02-18T05:52:09;5.17;;;3.67;;
15228;SDS011;7717;47.792;12.076;2023-02-18T05:54:37;4.00;;;3.43;;
15228;SDS011;7717;47.792;12.076;2023-02-18T05:57:03;3.90;;;3.50;;
15228;SDS011;7717;47.792;12.076;2023-02-18T05:59:28;5.20;;;4.00;;
15228;SDS011;7717;47.792;12.076;2023-02-18T06:01:54;4.73;;;3.77;;
15228;SDS011;7717;47.792;12.076;2023-02-18T06:04:19;5.10;;;3.70;;
15228;SDS011;7717;47.792;12.076;2023-02-18T06:06:45;4.17;;;3.23;;
15228;SDS011;7717;47.792;12.076;2023-02-18T06:09:11;3.80;;;3.43;;
15228;SDS011;7717;47.792;12.076;2023-02-18T06:11:36;4.63;;;4.10;;
15228;SDS011;7717;47.792;12.076;2023-02-18T06:14:05;6.07;;;3.93;;
15228;SDS011;7717;47.792;12.076;2023-02-18T06:16:30;8.23;;;3.90;;
15228;SDS011;7717;47.792;12.076;2023-02-18T06:18:56;6.20;;;5.33;;
15228;SDS011;7717;47.792;12.076;2023-02-18T06:21:21;7.90;;;5.10;;
15228;SDS011;7717;47.792;12.076;2023-02-18T06:23:47;6.63;;;4.97;;
15228;SDS011;7717;47.792;12.076;2023-02-18T06:26:12;6.13;;;4.37;;
15228;SDS011;7717;47.792;12.076;2023-02-18T06:28:38;5.97;;;4.53;;
15228;SDS011;7717;47.792;12.076;2023-02-18T06:31:03;8.87;;;5.63;;
15228;SDS011;7717;47.792;12.076;2023-02-18T06:33:29;6.07;;;5.47;;
15228;SDS011;7717;47.792;12.076;2023-02-18T06:35:55;7.43;;;5.53;;
15228;SDS011;7717;47.792;12.076;2023-02-18T06:38:23;8.37;;;7.67;;
15228;SDS011;7717;47.792;12.076;2023-02-18T06:40:48;10.47;;;8.37;;
15228;SDS011;7717;47.792;12.076;2023-02-18T06:43:14;41.53;;;25.70;;
15228;SDS011;7717;47.792;12.076;2023-02-18T06:45:39;17.73;;;11.07;;
15228;SDS011;7717;47.792;12.076;2023-02-18T06:48:05;10.63;;;6.17;;
15228;SDS011;7717;47.792;12.076;2023-02-18T06:50:30;6.07;;;5.30;;
15228;SDS011;7717;47.792;12.076;2023-02-18T06:52:55;8.30;;;6.40;;
15228;SDS011;7717;47.792;12.076;2023-02-18T06:55:21;9.30;;;6.53;;
15228;SDS011;7717;47.792;12.076;2023-02-18T06:57:46;8.03;;;6.00;;
15228;SDS011;7717;47.792;12.076;2023-02-18T07:00:12;8.03;;;6.50;;
15228;SDS011;7717;47.792;12.076;2023-02-18T07:02:38;7.87;;;6.30;;
15228;SDS011;7717;47.792;12.076;2023-02-18T07:05:04;5.03;;;4.23;;
15228;SDS011;7717;47.792;12.076;2023-02-18T07:07:30;4.70;;;3.70;;
15228;SDS011;7717;47.792;12.076;2023-02-18T07:09:55;3.57;;;3.10;;
15228;SDS011;7717;47.792;12.076;2023-02-18T07:12:20;3.03;;;2.60;;
15228;SDS011;7717;47.792;12.076;2023-02-18T07:14:46;4.23;;;2.73;;
15228;SDS011;7717;47.792;12.076;2023-02-18T07:17:12;4.40;;;2.63;;
15228;SDS011;7717;47.792;12.076;2023-02-18T07:19:37;4.53;;;4.13;;
15228;SDS011;7717;47.792;12.076;2023-02-18T07:22:03;4.57;;;4.07;;
15228;SDS011;7717;47.792;12.076;2023-02-18T07:24:28;5.70;;;4.40;;
15228;SDS011;7717;47.792;12.076;2023-02-18T07:26:54;5.23;;;3.43;;
15228;SDS011;7717;47.792;12.076;2023-02-18T07:29:23;3.50;;;3.17;;
15228;SDS011;7717;47.792;12.076;2023-02-18T07:31:48;3.30;;;3.00;;
15228;SDS011;7717;47.792;12.076;2023-02-18T07:34:13;7.43;;;5.57;;
15228;SDS011;7717;47.792;12.076;2023-02-18T07:36:39;7.23;;;3.70;;
15228;SDS011;7717;47.792;12.076;2023-02-18T07:39:04;2.73;;;2.20;;
15228;SDS011;7717;47.792;12.076;2023-02-18T07:41:30;3.57;;;3.23;;
15228;SDS011;7717;47.792;12.076;2023-02-18T07:43:55;3.47;;;2.37;;
15228;SDS011;7717;47.792;12.076;2023-02-18T07:46:21;4.03;;;3.53;;
15228;SDS011;7717;47.792;12.076;2023-02-18T07:48:46;4.23;;;3.20;;
15228;SDS011;7717;47.792;12.076;2023-02-18T07:51:12;4.20;;;3.10;;
15228;SDS011;7717;47.792;12.076;2023-02-18T07:53:37;3.03;;;2.50;;
15228;SDS011;7717;47.792;12.076;2023-02-18T07:56:03;3.67;;;2.80;;
15228;SDS011;7717;47.792;12.076;2023-02-18T07:58:30;3.47;;;2.60;;
15228;SDS011;7717;47.792;12.076;2023-02-18T08:00:57;3.87;;;3.00;;
15228;SDS011;7717;47.792;12.076;2023-02-18T08:03:24;4.07;;;3.10;;
15228;SDS011;7717;47.792;12.076;2023-02-18T08:05:53;4.73;;;3.97;;
15228;SDS011;7717;47.792;12.076;2023-02-18T08:08:21;9.43;;;6.93;;
15228;SDS011;7717;47.792;12.076;2023-02-18T08:10:48;5.93;;;3.97;;
15228;SDS011;7717;47.792;12.076;2023-02-18T08:13:14;3.80;;;3.43;;
15228;SDS011;7717;47.792;12.076;2023-02-18T08:15:40;4.67;;;3.10;;
15228;SDS011;7717;47.792;12.076;2023-02-18T08:18:06;4.23;;;3.93;;
15228;SDS011;7717;47.792;12.076;2023-02-18T08:20:36;3.83;;;3.17;;
15228;SDS011;7717;47.792;12.076;2023-02-18T08:23:02;3.47;;;3.17;;
15228;SDS011;7717;47.792;12.076;2023-02-18T08:25:28;3.30;;;2.87;;
15228;SDS011;7717;47.792;12.076;2023-02-18T08:27:53;8.63;;;6.20;;
15228;SDS011;7717;47.792;12.076;2023-02-18T08:30:19;32.97;;;13.90;;
15228;SDS011;7717;47.792;12.076;2023-02-18T08:32:44;6.90;;;4.03;;
15228;SDS011;7717;47.792;12.076;2023-02-18T08:35:10;15.00;;;7.40;;
15228;SDS011;7717;47.792;12.076;2023-02-18T08:37:36;12.60;;;6.37;;
15228;SDS011;7717;47.792;12.076;2023-02-18T08:40:02;5.27;;;4.17;;
15228;SDS011;7717;47.792;12.076;2023-02-18T08:42:28;1.90;;;1.70;;
15228;SDS011;7717;47.792;12.076;2023-02-18T08:44:54;3.00;;;1.67;;
15228;SDS011;7717;47.792;12.076;2023-02-18T08:47:19;2.30;;;1.70;;
15228;SDS011;7717;47.792;12.076;2023-02-18T08:49:45;1.80;;;1.37;;
15228;SDS011;7717;47.792;12.076;2023-02-18T08:52:10;1.23;;;1.10;;
15228;SDS011;7717;47.792;12.076;2023-02-18T08:54:36;1.40;;;1.30;;
15228;SDS011;7717;47.792;12.076;2023-02-18T08:57:01;1.00;;;0.90;;
15228;SDS011;7717;47.792;12.076;2023-02-18T08:59:26;1.67;;;1.57;;
15228;SDS011;7717;47.792;12.076;2023-02-18T09:01:52;2.63;;;1.27;;
15228;SDS011;7717;47.792;12.076;2023-02-18T09:04:17;0.60;;;0.60;;
15228;SDS011;7717;47.792;12.076;2023-02-18T09:06:45;1.00;;;0.90;;
15228;SDS011;7717;47.792;12.076;2023-02-18T09:09:11;1.20;;;1.10;;
15228;SDS011;7717;47.792;12.076;2023-02-18T09:11:36;1.90;;;1.03;;
15228;SDS011;7717;47.792;12.076;2023-02-18T09:14:02;1.23;;;0.90;;
15228;SDS011;7717;47.792;12.076;2023-02-18T09:16:27;1.03;;;0.90;;
15228;SDS011;7717;47.792;12.076;2023-02-18T09:18:54;3.50;;;2.30;;
15228;SDS011;7717;47.792;12.076;2023-02-18T09:21:20;2.43;;;2.13;;
15228;SDS011;7717;47.792;12.076;2023-02-18T09:23:46;2.40;;;2.20;;
15228;SDS011;7717;47.792;12.076;2023-02-18T09:26:13;2.80;;;2.60;;
15228;SDS011;7717;47.792;12.076;2023-02-18T09:28:39;2.50;;;2.30;;
15228;SDS011;7717;47.792;12.076;2023-02-18T09:31:06;2.33;;;2.13;;
15228;SDS011;7717;47.792;12.076;2023-02-18T09:33:34;3.10;;;2.13;;
15228;SDS011;7717;47.792;12.076;2023-02-18T09:36:01;2.70;;;2.50;;
15228;SDS011;7717;47.792;12.076;2023-02-18T09:38:27;4.63;;;2.93;;
15228;SDS011;7717;47.792;12.076;2023-02-18T09:40:52;2.83;;;2.10;;
15228;SDS011;7717;47.792;12.076;2023-02-18T09:43:35;2.73;;;2.10;;
15228;SDS011;7717;47.792;12.076;2023-02-18T09:46:12;6.27;;;2.40;;
15228;SDS011;7717;47.792;12.076;2023-02-18T09:48:43;2.23;;;2.00;;
15228;SDS011;7717;47.792;12.076;2023-02-18T09:51:12;2.63;;;1.90;;
15228;SDS011;7717;47.792;12.076;2023-02-18T09:53:39;4.63;;;2.20;;
15228;SDS011;7717;47.792;12.076;2023-02-18T09:56:08;2.50;;;2.30;;
15228;SDS011;7717;47.792;12.076;2023-02-18T09:58:41;2.10;;;2.00;;
15228;SDS011;7717;47.792;12.076;2023-02-18T10:01:16;3.07;;;1.93;;
15228;SDS011;7717;47.792;12.076;2023-02-18T10:03:49;3.00;;;1.80;;
15228;SDS011;7717;47.792;12.076;2023-02-18T10:06:23;2.47;;;1.80;;
15228;SDS011;7717;47.792;12.076;2023-02-18T10:08:51;2.23;;;2.03;;
15228;SDS011;7717;47.792;12.076;2023-02-18T10:11:21;1.97;;;1.53;;
15228;SDS011;7717;47.792;12.076;2023-02-18T10:13:52;1.70;;;1.60;;
15228;SDS011;7717;47.792;12.076;2023-02-18T10:16:19;2.47;;;1.93;;
15228;SDS011;7717;47.792;12.076;2023-02-18T10:18:56;1.70;;;1.60;;
15228;SDS011;7717;47.792;12.076;2023-02-18T10:21:24;1.70;;;1.60;;
15228;SDS011;7717;47.792;12.076;2023-02-18T10:26:22;2.50;;;1.40;;
15228;SDS011;7717;47.792;12.076;2023-02-18T10:28:49;2.33;;;1.70;;
15228;SDS011;7717;47.792;12.076;2023-02-18T10:31:21;1.90;;;1.80;;
15228;SDS011;7717;47.792;12.076;2023-02-18T10:36:22;3.40;;;1.73;;
15228;SDS011;7717;47.792;12.076;2023-02-18T10:47:25;2.67;;;1.83;;
15228;SDS011;7717;47.792;12.076;2023-02-18T10:52:18;3.83;;;1.97;;
15228;SDS011;7717;47.792;12.076;2023-02-18T10:54:52;2.13;;;1.87;;
15228;SDS011;7717;47.792;12.076;2023-02-18T10:57:33;1.90;;;1.30;;
15228;SDS011;7717;47.792;12.076;2023-02-18T11:00:00;1.60;;;1.50;;
15228;SDS011;7717;47.792;12.076;2023-02-18T11:02:35;1.13;;;1.07;;
15228;SDS011;7717;47.792;12.076;2023-02-18T11:05:06;3.50;;;1.33;;
15228;SDS011;7717;47.792;12.076;2023-02-18T11:07:40;1.50;;;1.40;;
15228;SDS011;7717;47.792;12.076;2023-02-18T11:10:15;1.40;;;1.30;;
15228;SDS011;7717;47.792;12.076;2023-02-18T11:12:45;1.50;;;1.33;;
15228;SDS011;7717;47.792;12.076;2023-02-18T11:15:23;1.87;;;1.10;;
15228;SDS011;7717;47.792;12.076;2023-02-18T11:17:51;1.57;;;1.40;;
15228;SDS011;7717;47.792;12.076;2023-02-18T11:25:36;2.50;;;2.27;;
15228;SDS011;7717;47.792;12.076;2023-02-18T11:30:43;2.00;;;1.70;;
15228;SDS011;7717;47.792;12.076;2023-02-18T11:33:15;2.33;;;1.40;;
15228;SDS011;7717;47.792;12.076;2023-02-18T11:35:50;1.53;;;1.43;;
15228;SDS011;7717;47.792;12.076;2023-02-18T11:38:20;1.90;;;1.67;;
15228;SDS011;7717;47.792;12.076;2023-02-18T11:40:52;2.70;;;1.67;;
15228;SDS011;7717;47.792;12.076;2023-02-18T11:43:19;2.00;;;1.30;;
15228;SDS011;7717;47.792;12.076;2023-02-18T11:45:45;1.70;;;1.60;;
15228;SDS011;7717;47.792;12.076;2023-02-18T11:48:18;2.20;;;1.50;;
15228;SDS011;7717;47.792;12.076;2023-02-18T11:50:51;1.67;;;1.50;;
15228;SDS011;7717;47.792;12.076;2023-02-18T11:53:36;2.90;;;1.47;;
15228;SDS011;7717;47.792;12.076;2023-02-18T11:56:05;3.10;;;1.40;;
15228;SDS011;7717;47.792;12.076;2023-02-18T11:58:46;1.50;;;1.13;;
15228;SDS011;7717;47.792;12.076;2023-02-18T12:01:46;1.97;;;1.40;;
15228;SDS011;7717;47.792;12.076;2023-02-18T12:04:06;1.23;;;1.13;;
15228;SDS011;7717;47.792;12.076;2023-02-18T12:09:19;1.98;;;0.93;;
15228;SDS011;7717;47.792;12.076;2023-02-18T12:11:51;1.27;;;1.20;;
15228;SDS011;7717;47.792;12.076;2023-02-18T12:14:21;3.75;;;1.15;;
15228;SDS011;7717;47.792;12.076;2023-02-18T12:34:06;0.82;;;0.68;;
15228;SDS011;7717;47.792;12.076;2023-02-18T12:39:46;0.75;;;0.70;;
15228;SDS011;7717;47.792;12.076;2023-02-18T12:42:53;0.88;;;0.88;;
15228;SDS011;7717;47.792;12.076;2023-02-18T12:50:45;1.20;;;0.90;;
15228;SDS011;7717;47.792;12.076;2023-02-18T13:07:00;0.70;;;0.70;;
15228;SDS011;7717;47.792;12.076;2023-02-18T13:15:39;0.85;;;0.50;;
15228;SDS011;7717;47.792;12.076;2023-02-18T13:18:31;0.50;;;0.50;;
15228;SDS011;7717;47.792;12.076;2023-02-18T13:21:02;0.70;;;0.70;;
15228;SDS011;7717;47.792;12.076;2023-02-18T13:23:34;0.45;;;0.45;;
15228;SDS011;7717;47.792;12.076;2023-02-18T13:26:07;0.30;;;0.30;;
15228;SDS011;7717;47.792;12.076;2023-02-18T13:28:45;1.25;;;0.70;;
15228;SDS011;7717;47.792;12.076;2023-02-18T13:31:31;1.17;;;0.60;;
15228;SDS011;7717;47.792;12.076;2023-02-18T13:34:24;0.50;;;0.45;;
15228;SDS011;7717;47.792;12.076;2023-02-18T13:37:19;0.55;;;0.55;;
15228;SDS011;7717;47.792;12.076;2023-02-18T13:39:57;0.65;;;0.43;;
15228;SDS011;7717;47.792;12.076;2023-02-18T13:47:54;0.70;;;0.70;;
15228;SDS011;7717;47.792;12.076;2023-02-18T13:53:11;0.73;;;0.60;;
15228;SDS011;7717;47.792;12.076;2023-02-18T13:58:54;0.30;;;0.30;;
15228;SDS011;7717;47.792;12.076;2023-02-18T14:09:50;0.35;;;0.30;;
15228;SDS011;7717;47.792;12.076;2023-02-18T14:13:19;1.10;;;0.50;;
15228;SDS011;7717;47.792;12.076;2023-02-18T14:17:46;0.50;;;0.50;;
15228;SDS011;7717;47.792;12.076;2023-02-18T14:20:32;0.40;;;0.40;;
15228;SDS011;7717;47.792;12.076;2023-02-18T14:25:53;1.30;;;0.40;;
15228;SDS011;7717;47.792;12.076;2023-02-18T14:33:39;0.32;;;0.32;;
15228;SDS011;7717;47.792;12.076;2023-02-18T14:44:45;0.68;;;0.60;;
15228;SDS011;7717;47.792;12.076;2023-02-18T14:47:45;0.47;;;0.35;;
15228;SDS011;7717;47.792;12.076;2023-02-18T14:50:15;0.30;;;0.30;;
15228;SDS011;7717;47.792;12.076;2023-02-18T14:52:54;0.47;;;0.47;;
15228;SDS011;7717;47.792;12.076;2023-02-18T14:55:24;0.43;;;0.40;;
15228;SDS011;7717;47.792;12.076;2023-02-18T14:58:05;0.50;;;0.50;;
15228;SDS011;7717;47.792;12.076;2023-02-18T15:00:41;1.17;;;0.40;;
15228;SDS011;7717;47.792;12.076;2023-02-18T15:03:17;0.83;;;0.43;;
15228;SDS011;7717;47.792;12.076;2023-02-18T15:05:45;0.40;;;0.40;;
15228;SDS011;7717;47.792;12.076;2023-02-18T15:08:21;0.67;;;0.50;;
15228;SDS011;7717;47.792;12.076;2023-02-18T15:13:24;1.70;;;0.40;;
15228;SDS011;7717;47.792;12.076;2023-02-18T15:15:55;0.30;;;0.20;;
15228;SDS011;7717;47.792;12.076;2023-02-18T15:20:59;0.30;;;0.30;;
15228;SDS011;7717;47.792;12.076;2023-02-18T15:23:26;0.80;;;0.50;;
15228;SDS011;7717;47.792;12.076;2023-02-18T15:25:52;1.47;;;0.73;;
15228;SDS011;7717;47.792;12.076;2023-02-18T15:28:25;0.60;;;0.40;;
15228;SDS011;7717;47.792;12.076;2023-02-18T15:30:57;0.80;;;0.80;;
15228;SDS011;7717;47.792;12.076;2023-02-18T15:33:25;3.30;;;2.20;;
15228;SDS011;7717;47.792;12.076;2023-02-18T15:35:51;0.70;;;0.60;;
15228;SDS011;7717;47.792;12.076;2023-02-18T15:38:24;2.57;;;0.70;;
15228;SDS011;7717;47.792;12.076;2023-02-18T15:40:51;0.83;;;0.37;;
15228;SDS011;7717;47.792;12.076;2023-02-18T15:43:20;0.20;;;0.20;;
15228;SDS011;7717;47.792;12.076;2023-02-18T15:45:48;0.90;;;0.70;;
15228;SDS011;7717;47.792;12.076;2023-02-18T15:48:26;4.83;;;2.70;;
15228;SDS011;7717;47.792;12.076;2023-02-18T15:50:57;1.10;;;1.00;;
15228;SDS011;7717;47.792;12.076;2023-02-18T15:53:26;0.53;;;0.53;;
15228;SDS011;7717;47.792;12.076;2023-02-18T15:55:52;1.50;;;0.80;;
15228;SDS011;7717;47.792;12.076;2023-02-18T15:58:31;0.60;;;0.60;;
15228;SDS011;7717;47.792;12.076;2023-02-18T16:00:59;0.73;;;0.50;;
15228;SDS011;7717;47.792;12.076;2023-02-18T16:03:28;0.80;;;0.70;;
15228;SDS011;7717;47.792;12.076;2023-02-18T16:06:15;0.50;;;0.50;;
15228;SDS011;7717;47.792;12.076;2023-02-18T16:09:06;0.97;;;0.67;;
15228;SDS011;7717;47.792;12.076;2023-02-18T16:11:40;0.70;;;0.63;;
15228;SDS011;7717;47.792;12.076;2023-02-18T16:17:22;1.40;;;1.30;;
15228;SDS011;7717;47.792;12.076;2023-02-18T16:19:51;0.53;;;0.53;;
15228;SDS011;7717;47.792;12.076;2023-02-18T16:22:21;1.27;;;0.50;;
15228;SDS011;7717;47.792;12.076;2023-02-18T16:24:49;1.20;;;0.57;;
15228;SDS011;7717;47.792;12.076;2023-02-18T16:27:20;1.17;;;0.50;;
15228;SDS011;7717;47.792;12.076;2023-02-18T16:29:49;0.87;;;0.87;;
15228;SDS011;7717;47.792;12.076;2023-02-18T16:32:15;0.83;;;0.60;;
15228;SDS011;7717;47.792;12.076;2023-02-18T16:34:40;0.70;;;0.70;;
15228;SDS011;7717;47.792;12.076;2023-02-18T16:37:05;0.70;;;0.70;;
15228;SDS011;7717;47.792;12.076;2023-02-18T16:39:50;0.60;;;0.60;;
15228;SDS011;7717;47.792;12.076;2023-02-18T16:42:18;0.83;;;0.77;;
15228;SDS011;7717;47.792;12.076;2023-02-18T16:44:44;2.00;;;0.80;;
15228;SDS011;7717;47.792;12.076;2023-02-18T16:47:11;1.33;;;1.23;;
15228;SDS011;7717;47.792;12.076;2023-02-18T16:49:40;1.77;;;1.47;;
15228;SDS011;7717;47.792;12.076;2023-02-18T16:52:08;1.73;;;1.40;;
15228;SDS011;7717;47.792;12.076;2023-02-18T16:54:37;1.10;;;1.00;;
15228;SDS011;7717;47.792;12.076;2023-02-18T16:57:02;1.90;;;0.60;;
15228;SDS011;7717;47.792;12.076;2023-02-18T16:59:27;1.27;;;0.77;;
15228;SDS011;7717;47.792;12.076;2023-02-18T17:01:53;1.30;;;0.70;;
15228;SDS011;7717;47.792;12.076;2023-02-18T17:04:19;1.83;;;0.80;;
15228;SDS011;7717;47.792;12.076;2023-02-18T17:06:47;1.17;;;0.70;;
15228;SDS011;7717;47.792;12.076;2023-02-18T17:11:47;0.70;;;0.70;;
15228;SDS011;7717;47.792;12.076;2023-02-18T17:14:15;1.23;;;0.70;;
15228;SDS011;7717;47.792;12.076;2023-02-18T17:16:48;0.40;;;0.40;;
15228;SDS011;7717;47.792;12.076;2023-02-18T17:19:16;1.20;;;0.90;;
15228;SDS011;7717;47.792;12.076;2023-02-18T17:21:42;0.80;;;0.80;;
15228;SDS011;7717;47.792;12.076;2023-02-18T17:24:11;1.27;;;1.17;;
15228;SDS011;7717;47.792;12.076;2023-02-18T17:26:37;1.07;;;0.97;;
15228;SDS011;7717;47.792;12.076;2023-02-18T17:29:03;1.87;;;1.50;;
15228;SDS011;7717;47.792;12.076;2023-02-18T17:31:30;0.80;;;0.80;;
15228;SDS011;7717;47.792;12.076;2023-02-18T17:34:03;1.10;;;1.00;;
15228;SDS011;7717;47.792;12.076;2023-02-18T17:36:30;1.13;;;0.97;;
15228;SDS011;7717;47.792;12.076;2023-02-18T17:38:57;2.10;;;1.00;;
15228;SDS011;7717;47.792;12.076;2023-02-18T17:41:23;1.40;;;1.30;;
15228;SDS011;7717;47.792;12.076;2023-02-18T17:43:49;1.80;;;1.20;;